Time;durP1;ratioP1;P1;durP2;ratioP2;P2;SDS_P1;SDS_P2;PMS_P1;PMS_P2;Temp;Humidity;BMP_temperature;BMP_pressure;BME280_temperature;BME280_humidity;BME280_pressure;Samples;Min_cycle;Max_cycle;Signal;HPM_P1;HPM_P2
2023/03/04 00:01:12;;;;;;;10.63;8.65;;;;;;;5.42;100.00;98219.72;5009908;28;20290;-60
2023/03/04 00:03:37;;;;;;;14.32;9.07;;;;;;;5.50;100.00;98220.16;4971383;28;20204;-61
2023/03/04 00:06:04;;;;;;;11.75;9.68;;;;;;;6.09;100.00;98301.81;4971131;28;20227;-60
2023/03/04 00:08:32;;;;;;;10.98;9.38;;;;;;;5.67;100.00;98253.50;4970869;28;20205;-60
2023/03/04 00:10:57;;;;;;;14.48;9.00;;;;;;;6.03;100.00;98287.56;4970021;28;20184;-60
2023/03/04 00:13:23;;;;;;;12.93;10.50;;;;;;;6.15;100.00;98296.34;4972716;28;20184;-60
2023/03/04 00:15:49;;;;;;;11.75;9.63;;;;;;;5.91;100.00;98259.09;4963742;28;20180;-60
2023/03/04 00:18:15;;;;;;;11.00;8.70;;;;;;;6.03;100.00;98274.72;4965518;28;20192;-60
2023/03/04 00:20:41;;;;;;;11.77;8.77;;;;;;;5.86;100.00;98241.38;4964215;28;20185;-60
2023/03/04 00:23:06;;;;;;;11.23;9.02;;;;;;;6.01;100.00;98276.50;4963955;28;20199;-60
2023/03/04 00:25:32;;;;;;;11.63;9.30;;;;;;;5.92;100.00;98265.91;4965337;28;20277;-60
2023/03/04 00:27:57;;;;;;;10.32;8.43;;;;;;;6.00;100.00;98269.72;4963690;28;20181;-60
2023/03/04 00:30:23;;;;;;;11.82;8.85;;;;;;;5.74;100.00;98208.63;4964298;28;20220;-60
2023/03/04 00:32:49;;;;;;;11.45;8.45;;;;;;;6.12;100.00;98263.94;4965100;28;20189;-60
2023/03/04 00:35:14;;;;;;;10.35;9.15;;;;;;;5.71;100.00;98190.00;4993865;28;20191;-60
2023/03/04 00:37:40;;;;;;;11.95;8.93;;;;;;;6.17;100.00;98261.97;4995784;28;20565;-60
2023/03/04 00:40:06;;;;;;;11.27;9.15;;;;;;;6.00;100.00;98240.66;4996286;28;20267;-60
2023/03/04 00:42:31;;;;;;;13.50;9.57;;;;;;;5.80;100.00;98221.16;4995828;28;20209;-60
2023/03/04 00:44:56;;;;;;;13.52;9.60;;;;;;;6.05;100.00;98282.31;4995887;28;20551;-60
2023/03/04 00:47:22;;;;;;;11.55;8.75;;;;;;;5.88;100.00;98239.56;4996125;28;20179;-60
2023/03/04 00:49:47;;;;;;;11.77;9.00;;;;;;;5.64;100.00;98184.34;4996311;28;20176;-60
2023/03/04 00:52:13;;;;;;;12.82;8.88;;;;;;;6.20;100.00;98278.94;4995796;28;20184;-60
2023/03/04 00:54:38;;;;;;;9.65;7.82;;;;;;;5.93;100.00;98232.44;4995708;28;20191;-60
2023/03/04 00:57:03;;;;;;;9.77;8.05;;;;;;;5.79;100.00;98211.78;4995690;28;20272;-60
2023/03/04 00:59:29;;;;;;;8.95;7.57;;;;;;;6.00;100.00;98258.63;4995604;28;20171;-60
2023/03/04 01:01:54;;;;;;;10.10;8.32;;;;;;;6.12;100.00;98273.41;4995217;28;20576;-60
2023/03/04 01:04:19;;;;;;;11.38;7.90;;;;;;;5.88;100.00;98218.22;4995776;28;20172;-60
2023/03/04 01:06:45;;;;;;;13.05;9.45;;;;;;;6.34;100.00;98272.16;4996067;28;20279;-60
2023/03/04 01:09:10;;;;;;;10.43;8.38;;;;;;;5.94;100.00;98200.72;4995460;28;20200;-60
2023/03/04 01:11:36;;;;;;;10.35;8.38;;;;;;;6.39;100.00;98290.75;4995121;28;20184;-60
2023/03/04 01:14:01;;;;;;;11.18;9.25;;;;;;;6.37;100.00;98284.88;4995393;28;20195;-60
2023/03/04 01:16:26;;;;;;;13.77;9.07;;;;;;;6.40;100.00;98278.72;4995327;28;20175;-60
2023/03/04 01:18:52;;;;;;;12.90;9.40;;;;;;;6.36;100.00;98280.59;4995020;28;20168;-60
2023/03/04 01:21:18;;;;;;;12.55;10.02;;;;;;;6.36;100.00;98293.44;4995122;28;20207;-60
2023/03/04 01:23:43;;;;;;;12.30;9.65;;;;;;;6.25;100.00;98274.41;4994907;28;20171;-60
2023/03/04 01:26:08;;;;;;;14.82;10.43;;;;;;;5.96;100.00;98218.63;4995382;28;20271;-60
2023/03/04 01:28:34;;;;;;;11.52;9.40;;;;;;;6.31;100.00;98274.06;4995399;28;20176;-60
2023/03/04 01:31:01;;;;;;;13.52;9.70;;;;;;;6.10;100.00;98239.25;4995088;28;20556;-60
2023/03/04 01:33:27;;;;;;;11.65;8.75;;;;;;;5.68;100.00;98185.84;4994925;28;20175;-60
2023/03/04 01:35:53;;;;;;;13.10;9.95;;;;;;;5.72;100.00;98192.47;4995256;28;20185;-60
2023/03/04 01:38:18;;;;;;;13.10;9.93;;;;;;;5.76;100.00;98199.09;4994940;28;20168;-60
2023/03/04 01:40:43;;;;;;;14.10;10.43;;;;;;;5.78;100.00;98191.31;4994799;28;20654;-60
2023/03/04 01:43:18;;;;;;;11.38;9.38;;;;;;;5.76;100.00;98206.00;4994870;28;20210;-60
2023/03/04 01:45:44;;;;;;;12.23;10.13;;;;;;;5.88;100.00;98231.84;4994820;28;20263;-60
2023/03/04 01:48:15;;;;;;;11.05;9.40;;;;;;;6.13;100.00;98273.28;4994788;28;20179;-60
2023/03/04 01:50:41;;;;;;;14.15;9.85;;;;;;;5.66;100.00;98171.44;4994754;28;20203;-60
2023/03/04 01:53:16;;;;;;;13.43;9.90;;;;;;;5.81;100.00;98174.06;4994711;28;20624;-60
2023/03/04 01:55:41;;;;;;;12.60;9.32;;;;;;;5.96;100.00;98191.22;4994468;28;20593;-60
2023/03/04 01:58:09;;;;;;;13.80;9.48;;;;;;;6.39;100.00;98264.19;4994533;28;20172;-60
2023/03/04 02:00:36;;;;;;;11.80;9.88;;;;;;;6.34;100.00;98261.88;4994277;28;20566;-60
2023/03/04 02:03:06;;;;;;;11.43;9.48;;;;;;;5.77;100.00;98180.22;4994960;28;20187;-60
2023/03/04 02:05:34;;;;;;;10.82;9.02;;;;;;;5.88;100.00;98172.00;4994684;28;20179;-60
2023/03/04 02:08:00;;;;;;;13.10;9.40;;;;;;;5.97;100.00;98164.63;4994660;28;20259;-60
2023/03/04 02:10:26;;;;;;;11.45;8.70;;;;;;;5.97;100.00;98151.78;4994823;28;20184;-60
2023/03/04 02:12:52;;;;;;;9.85;8.05;;;;;;;5.95;100.00;98153.59;4994328;28;20171;-60
2023/03/04 02:15:18;;;;;;;9.68;8.38;;;;;;;6.53;100.00;98238.59;4994520;28;20180;-60
2023/03/04 02:17:44;;;;;;;9.88;8.80;;;;;;;6.60;100.00;98230.47;4994750;28;20182;-60
2023/03/04 02:20:21;;;;;;;11.07;8.43;;;;;;;6.76;100.00;98251.00;4994425;28;20176;-60
2023/03/04 02:23:22;;;;;;;9.85;8.77;;;;;;;6.83;100.00;98249.75;4994009;28;20231;-60
2023/03/04 02:26:09;;;;;;;12.38;9.07;;;;;;;6.91;100.00;98252.69;4962340;28;20196;-60
2023/03/04 02:28:34;;;;;;;10.88;9.38;;;;;;;6.65;100.00;98233.59;4972727;28;20192;-60
2023/03/04 02:31:00;;;;;;;12.35;9.27;;;;;;;6.68;100.00;98222.31;4972399;28;20706;-60
2023/03/04 02:33:26;;;;;;;10.50;9.27;;;;;;;6.13;100.00;98142.31;4972203;28;20263;-60
2023/03/04 02:35:51;;;;;;;10.18;8.07;;;;;;;6.31;100.00;98158.47;4971552;28;20192;-60
2023/03/04 02:38:17;;;;;;;10.77;8.25;;;;;;;6.15;100.00;98142.22;4972106;28;20236;-60
2023/03/04 02:40:47;;;;;;;9.15;7.68;;;;;;;6.33;100.00;98154.91;4972018;28;20192;-60
2023/03/04 02:43:13;;;;;;;9.68;7.93;;;;;;;6.77;100.00;98211.53;4972335;28;20168;-60
2023/03/04 02:45:45;;;;;;;8.75;7.32;;;;;;;6.79;100.00;98223.38;4971951;28;20199;-60
2023/03/04 02:48:11;;;;;;;9.70;7.22;;;;;;;6.10;100.00;98144.22;4972459;28;20287;-60
2023/03/04 02:50:42;;;;;;;9.60;7.72;;;;;;;6.51;100.00;98220.69;4971801;28;20279;-60
2023/03/04 02:53:08;;;;;;;7.80;6.72;;;;;;;6.58;100.00;98227.13;4972158;28;20187;-60
2023/03/04 02:55:34;;;;;;;9.35;7.20;;;;;;;5.99;100.00;98133.69;4952268;28;20654;-60
2023/03/04 02:57:59;;;;;;;8.43;7.03;;;;;;;6.55;100.00;98226.47;4968879;28;20196;-60
2023/03/04 03:00:25;;;;;;;8.20;6.90;;;;;;;6.32;100.00;98189.22;4971783;28;20687;-60
2023/03/04 03:02:51;;;;;;;8.90;6.97;;;;;;;6.41;100.00;98203.28;4971609;28;20342;-60
2023/03/04 03:05:17;;;;;;;8.27;6.60;;;;;;;6.36;100.00;98195.00;4971903;28;20184;-60
2023/03/04 03:07:42;;;;;;;7.95;6.60;;;;;;;6.29;100.00;98188.56;4971796;28;20197;-60
2023/03/04 03:10:09;;;;;;;6.82;6.07;;;;;;;6.00;100.00;98145.66;4971858;28;20184;-60
2023/03/04 03:12:34;;;;;;;7.28;6.47;;;;;;;6.57;100.00;98243.47;4971419;28;20690;-60
2023/03/04 03:14:59;;;;;;;7.85;6.35;;;;;;;6.14;100.00;98159.41;4971504;28;20212;-60
2023/03/04 03:17:29;;;;;;;7.30;6.10;;;;;;;6.11;100.00;98153.59;4972037;28;20184;-60
2023/03/04 03:19:55;;;;;;;7.70;6.20;;;;;;;6.70;100.00;98241.06;4971855;28;20197;-60
2023/03/04 03:22:20;;;;;;;7.50;6.55;;;;;;;6.27;100.00;98168.09;4971341;28;20235;-60
2023/03/04 03:24:46;;;;;;;8.25;7.28;;;;;;;6.90;100.00;98248.47;4971367;28;20561;-60
2023/03/04 03:27:11;;;;;;;9.48;7.22;;;;;;;6.54;100.00;98178.56;4971551;28;20188;-60
2023/03/04 03:29:36;;;;;;;8.85;7.88;;;;;;;6.55;100.00;98187.94;4971318;28;20194;-60
2023/03/04 03:32:02;;;;;;;8.15;7.15;;;;;;;6.85;100.00;98235.03;4974359;28;20239;-60
2023/03/04 03:34:27;;;;;;;8.27;7.40;;;;;;;6.63;100.00;98189.16;4992989;28;20180;-60
2023/03/04 03:36:53;;;;;;;8.02;6.75;;;;;;;6.49;100.00;98201.97;4992911;28;20557;-60
2023/03/04 03:39:18;;;;;;;8.73;7.22;;;;;;;6.28;100.00;98180.00;4992964;28;20214;-60
2023/03/04 03:41:44;;;;;;;7.47;6.38;;;;;;;6.07;100.00;98147.78;4992859;28;20198;-60
2023/03/04 03:44:09;;;;;;;8.82;7.00;;;;;;;6.59;100.00;98238.25;4971227;28;20690;-60
2023/03/04 03:46:35;;;;;;;9.45;6.97;;;;;;;6.28;100.00;98187.72;4973543;28;20195;-60
2023/03/04 03:49:00;;;;;;;9.65;7.00;;;;;;;6.56;100.00;98223.84;4975282;28;20574;-60
2023/03/04 03:51:26;;;;;;;16.55;9.20;;;;;;;6.34;100.00;98187.38;4975476;28;20188;-60
2023/03/04 03:53:51;;;;;;;11.25;9.35;;;;;;;6.60;100.00;98239.91;4974934;28;20180;-60
2023/03/04 03:56:16;;;;;;;12.93;10.50;;;;;;;6.50;100.00;98228.47;4975296;28;20184;-60
2023/03/04 03:58:42;;;;;;;10.65;8.90;;;;;;;6.40;100.00;98228.16;4975077;28;20594;-60
2023/03/04 04:01:08;;;;;;;11.25;8.65;;;;;;;6.03;100.00;98145.47;4974927;28;20200;-60
2023/03/04 04:03:34;;;;;;;13.30;9.52;;;;;;;6.56;100.00;98230.69;4974958;28;20281;-60
2023/03/04 04:05:59;;;;;;;15.40;10.68;;;;;;;6.35;100.00;98183.88;4974907;28;20188;-60
2023/03/04 04:08:25;;;;;;;13.50;9.70;;;;;;;6.29;100.00;98204.78;4975067;28;20200;-60
2023/03/04 04:10:50;;;;;;;14.57;10.07;;;;;;;6.25;100.00;98234.13;4974950;28;20663;-60
2023/03/04 04:13:15;;;;;;;12.52;10.05;;;;;;;6.29;100.00;98245.88;4975594;28;20224;-60
2023/03/04 04:15:41;;;;;;;12.32;9.35;;;;;;;6.32;100.00;98235.47;4974976;28;20247;-60
2023/03/04 04:18:07;;;;;;;12.57;9.27;;;;;;;6.32;100.00;98238.03;4975029;28;20180;-60
2023/03/04 04:20:32;;;;;;;12.93;9.75;;;;;;;6.08;100.00;98208.53;4974782;28;20675;-60
2023/03/04 04:22:58;;;;;;;10.20;7.97;;;;;;;6.07;100.00;98194.00;4974630;28;20212;-60
2023/03/04 04:25:23;;;;;;;10.25;7.68;;;;;;;6.33;100.00;98249.13;4974720;28;20185;-60
2023/03/04 04:27:49;;;;;;;11.30;7.90;;;;;;;6.09;100.00;98212.75;4974609;28;20199;-60
2023/03/04 04:30:14;;;;;;;9.38;7.22;;;;;;;5.74;100.00;98157.28;4974590;28;20188;-60
2023/03/04 04:32:40;;;;;;;11.82;7.50;;;;;;;6.04;100.00;98222.44;4974792;28;20216;-60
2023/03/04 04:35:06;;;;;;;10.00;7.53;;;;;;;6.21;100.00;98250.63;4974730;28;20219;-60
2023/03/04 04:37:32;;;;;;;9.10;7.32;;;;;;;6.09;100.00;98230.72;4974930;28;20193;-60
2023/03/04 04:39:59;;;;;;;10.23;7.88;;;;;;;6.35;100.00;98249.88;4974406;28;20555;-60
2023/03/04 04:42:25;;;;;;;13.98;10.55;;;;;;;6.51;100.00;98266.09;4990860;28;20212;-60
2023/03/04 04:44:51;;;;;;;15.98;11.65;;;;;;;6.11;100.00;98185.25;4996078;28;20222;-60
2023/03/04 04:47:17;;;;;;;11.45;9.70;;;;;;;6.35;100.00;98221.63;4995917;28;20183;-60
2023/03/04 04:49:43;;;;;;;13.63;9.73;;;;;;;6.49;100.00;98252.53;4996439;28;20186;-60
2023/03/04 04:52:08;;;;;;;13.60;8.90;;;;;;;5.99;100.00;98170.50;4995952;28;20223;-60
2023/03/04 04:54:33;;;;;;;10.32;8.70;;;;;;;5.96;100.00;98180.94;4995284;28;20197;-60
2023/03/04 04:56:59;;;;;;;14.07;10.43;;;;;;;6.42;100.00;98252.00;4994411;28;20230;-60
2023/03/04 04:59:24;;;;;;;13.55;10.52;;;;;;;6.16;100.00;98218.38;4994730;28;20168;-60
2023/03/04 05:01:49;;;;;;;15.48;11.40;;;;;;;6.21;100.00;98231.78;4994526;28;20572;-60
2023/03/04 05:04:15;;;;;;;21.00;14.43;;;;;;;6.07;100.00;98204.28;4994594;28;20172;-60
2023/03/04 05:06:40;;;;;;;19.40;13.00;;;;;;;6.07;100.00;98209.41;4994516;28;20238;-60
2023/03/04 05:09:06;;;;;;;18.33;14.68;;;;;;;6.04;100.00;98208.75;4994758;28;20238;-60
2023/03/04 05:11:31;;;;;;;24.83;17.95;;;;;;;6.44;100.00;98267.34;4994486;28;20537;-60
2023/03/04 05:13:57;;;;;;;28.60;19.88;;;;;;;6.34;100.00;98254.19;4994690;28;20200;-60
2023/03/04 05:16:22;;;;;;;18.30;13.35;;;;;;;6.14;100.00;98226.19;4994385;28;20266;-60
2023/03/04 05:18:48;;;;;;;20.13;13.45;;;;;;;6.35;100.00;98285.84;4994360;28;20604;-60
2023/03/04 05:21:13;;;;;;;20.63;13.00;;;;;;;5.78;100.00;98191.31;4994797;28;20250;-60
2023/03/04 05:23:40;;;;;;;20.10;13.60;;;;;;;5.88;100.00;98200.25;4994093;28;20611;-60
2023/03/04 05:26:10;;;;;;;26.98;18.45;;;;;;;5.96;100.00;98200.66;4994474;28;20184;-60
2023/03/04 05:28:35;;;;;;;28.77;19.00;;;;;;;6.30;100.00;98262.94;4994112;28;20262;-60
2023/03/04 05:31:03;;;;;;;27.42;17.48;;;;;;;6.33;100.00;98290.22;4994357;28;20267;-60
2023/03/04 05:33:29;;;;;;;30.45;21.55;;;;;;;5.87;100.00;98201.97;4993944;28;20233;-60
2023/03/04 05:35:55;;;;;;;25.52;19.67;;;;;;;5.81;100.00;98188.59;4994025;28;20180;-60
2023/03/04 05:38:21;;;;;;;30.33;19.90;;;;;;;5.83;100.00;98204.78;4993922;28;20256;-60
2023/03/04 05:40:48;;;;;;;31.60;22.23;;;;;;;6.16;100.00;98255.16;4972703;28;20623;-60
2023/03/04 05:43:14;;;;;;;33.10;22.65;;;;;;;6.17;100.00;98256.81;4972632;28;20320;-60
2023/03/04 05:45:40;;;;;;;35.00;24.17;;;;;;;6.01;100.00;98225.16;4972285;28;20189;-60
2023/03/04 05:48:07;;;;;;;33.80;23.23;;;;;;;6.31;100.00;98304.91;4972100;28;20243;-60
2023/03/04 05:50:33;;;;;;;34.88;23.67;;;;;;;5.96;100.00;98263.13;4972154;28;20219;-60
2023/03/04 05:52:59;;;;;;;37.97;24.85;;;;;;;5.89;100.00;98253.22;4972002;28;20219;-60
2023/03/04 05:56:32;;;;;;;45.50;29.48;;;;;;;5.97;100.00;98253.66;5070437;28;20557;-58
2023/03/04 05:58:58;;;;;;;53.85;34.50;;;;;;;5.92;100.00;98241.06;5069857;28;20600;-60
2023/03/04 06:01:23;;;;;;;65.70;40.60;;;;;;;5.89;100.00;98258.38;5069879;28;20174;-60
2023/03/04 06:03:49;;;;;;;70.35;38.38;;;;;;;6.09;100.00;98294.09;5070087;28;20212;-60
2023/03/04 06:06:14;;;;;;;61.97;37.80;;;;;;;5.55;100.00;98222.50;5069511;28;20184;-60
2023/03/04 06:08:40;;;;;;;57.70;38.13;;;;;;;5.61;100.00;98240.97;5069454;28;20259;-60
2023/03/04 06:11:06;;;;;;;54.83;36.28;;;;;;;5.50;100.00;98219.31;5069134;28;20264;-60
2023/03/04 06:13:32;;;;;;;57.53;36.58;;;;;;;5.73;100.00;98234.38;5069613;28;20181;-60
2023/03/04 06:15:59;;;;;;;53.80;36.08;;;;;;;5.89;100.00;98255.81;5069268;28;20193;-60
2023/03/04 06:18:26;;;;;;;51.85;31.98;;;;;;;6.00;100.00;98259.44;5069833;28;20642;-60
2023/03/04 06:21:01;;;;;;;48.38;32.60;;;;;;;5.84;100.00;98243.19;5069202;28;20713;-60
2023/03/04 06:23:27;;;;;;;50.60;31.45;;;;;;;5.75;100.00;98220.53;5069223;28;20277;-60
2023/03/04 06:25:55;;;;;;;49.38;32.85;;;;;;;6.27;100.00;98293.97;5068807;28;20268;-60
2023/03/04 06:28:21;;;;;;;53.25;32.78;;;;;;;6.12;100.00;98263.13;5069055;28;20259;-60
2023/03/04 06:30:46;;;;;;;54.15;33.88;;;;;;;6.39;100.00;98307.88;5069322;28;20631;-60
2023/03/04 06:33:12;;;;;;;51.47;32.58;;;;;;;6.17;100.00;98256.00;5068953;28;20185;-60
2023/03/04 06:35:37;;;;;;;57.47;35.95;;;;;;;6.00;100.00;98235.53;5069314;28;20261;-60
2023/03/04 06:38:02;;;;;;;65.88;40.60;;;;;;;6.04;100.00;98240.41;5068555;28;20264;-60
2023/03/04 06:40:28;;;;;;;68.68;41.40;;;;;;;6.17;100.00;98282.50;5069056;28;20174;-60
2023/03/04 06:42:53;;;;;;;69.55;39.03;;;;;;;6.41;100.00;98316.34;5069066;28;20188;-60
2023/03/04 06:45:19;;;;;;;71.95;41.78;;;;;;;6.26;100.00;98292.31;5069296;28;20180;-60
2023/03/04 06:47:44;;;;;;;73.38;41.80;;;;;;;6.41;100.00;98300.94;5068896;28;20184;-60
2023/03/04 06:50:11;;;;;;;72.95;40.65;;;;;;;6.45;100.00;98287.84;5068284;28;20165;-61
2023/03/04 06:52:37;;;;;;;67.32;41.25;;;;;;;6.32;100.00;98244.91;5069100;28;20180;-60
2023/03/04 06:55:03;;;;;;;65.55;38.70;;;;;;;6.87;100.00;98326.63;5068351;28;20736;-60
2023/03/04 06:57:29;;;;;;;68.85;39.13;;;;;;;6.67;100.00;98287.50;5068168;28;20332;-60
2023/03/04 06:59:54;;;;;;;64.13;37.97;;;;;;;6.49;100.00;98243.09;5068377;28;20314;-60
2023/03/04 07:02:19;;;;;;;67.18;39.15;;;;;;;6.69;100.00;98265.09;5068051;28;20177;-58
2023/03/04 07:04:45;;;;;;;57.00;36.28;;;;;;;6.58;100.00;98252.03;5068268;28;20183;-58
2023/03/04 07:07:11;;;;;;;60.63;37.88;;;;;;;6.99;100.00;98315.66;5059132;28;20174;-58
2023/03/04 07:09:36;;;;;;;54.10;35.08;;;;;;;6.83;100.00;98285.75;5054991;28;20620;-59
2023/03/04 07:12:02;;;;;;;65.03;37.42;;;;;;;7.04;100.00;98321.38;5055000;28;20173;-59
2023/03/04 07:14:28;;;;;;;56.28;36.20;;;;;;;6.62;100.00;98256.91;5054859;28;20202;-59
2023/03/04 07:16:54;;;;;;;77.28;43.28;;;;;;;7.02;100.00;98291.50;5054887;28;20172;-59
2023/03/04 07:19:19;;;;;;;77.18;46.13;;;;;;;7.24;100.00;98320.25;5054551;28;20228;-60
2023/03/04 07:21:45;;;;;;;102.95;53.75;;;;;;;7.36;100.00;98330.69;5054817;28;20567;-60
2023/03/04 07:24:11;;;;;;;84.10;47.72;;;;;;;7.40;100.00;98313.34;5054732;28;20648;-60
2023/03/04 07:26:37;;;;;;;76.57;43.35;;;;;;;7.28;100.00;98286.53;5054722;28;20172;-60
2023/03/04 07:29:03;;;;;;;77.38;45.33;;;;;;;7.68;100.00;98344.31;5054897;28;20196;-60
2023/03/04 07:31:33;;;;;;;79.00;46.42;;;;;;;7.69;100.00;98338.22;5055398;28;20217;-60
2023/03/04 07:34:02;;;;;;;91.57;48.33;;;;;;;7.39;100.00;98279.03;5055368;28;20174;-60
2023/03/04 07:36:28;;;;;;;80.05;46.53;;;;;;;7.43;100.00;98295.13;5052233;28;20210;-61
2023/03/04 07:38:54;;;;;;;82.30;45.88;;;;;;;7.57;100.00;98324.31;5052337;28;20259;-61
2023/03/04 07:41:21;;;;;;;83.97;45.78;;;;;;;7.69;100.00;98333.09;5052605;28;20194;-61
2023/03/04 07:43:47;;;;;;;96.90;48.30;;;;;;;7.58;100.00;98301.97;5052073;28;20182;-61
2023/03/04 07:46:12;;;;;;;89.25;47.92;;;;;;;7.22;100.00;98235.44;5052170;28;20193;-61
2023/03/04 07:48:38;;;;;;;111.72;51.75;;;;;;;7.31;100.00;98260.66;5052263;28;20307;-60
2023/03/04 07:51:15;;;;;;;100.35;48.83;;;;;;;7.83;100.00;98323.63;5032014;28;20614;-60
2023/03/04 07:53:43;;;;;;;84.82;45.30;;;;;;;7.90;100.00;98322.34;5032669;28;20202;-58
2023/03/04 07:56:13;;;;;;;88.18;47.08;;;;;;;7.80;100.00;98300.63;5031777;28;20225;-58
2023/03/04 07:58:39;;;;;;;91.55;45.47;;;;;;;7.68;100.00;98285.88;5031672;28;20185;-60
2023/03/04 08:01:16;;;;;;;94.13;46.00;;;;;;;7.78;100.00;98306.78;5031859;28;20620;-61
2023/03/04 08:03:41;;;;;;;85.70;45.55;;;;;;;7.72;100.00;98278.81;5031437;28;20178;-61
2023/03/04 08:06:09;;;;;;;85.22;46.97;;;;;;;7.93;100.00;98332.44;5031664;28;20198;-61
2023/03/04 08:08:35;;;;;;;102.85;51.63;;;;;;;7.59;100.00;98247.81;5030915;28;20265;-60
2023/03/04 08:11:09;;;;;;;99.82;51.40;;;;;;;8.06;100.00;98320.53;5031279;28;20243;-60
2023/03/04 08:13:35;;;;;;;97.72;52.28;;;;;;;8.05;100.00;98295.66;5031796;28;20182;-61
2023/03/04 08:16:01;;;;;;;91.43;51.72;;;;;;;7.92;100.00;98268.16;5031768;28;20696;-61
2023/03/04 08:18:27;;;;;;;103.57;52.55;;;;;;;8.11;100.00;98297.03;5030044;28;20197;-58
2023/03/04 08:20:52;;;;;;;91.13;51.58;;;;;;;8.39;100.00;98318.50;5030848;28;20183;-58
2023/03/04 08:23:18;;;;;;;88.80;48.17;;;;;;;8.33;100.00;98326.59;5053599;28;20717;-58
2023/03/04 08:25:44;;;;;;;89.35;50.58;;;;;;;8.01;100.00;98259.88;5053275;28;20170;-58
2023/03/04 08:28:12;;;;;;;91.72;49.05;;;;;;;8.36;100.00;98315.28;5053826;28;20232;-59
2023/03/04 08:30:38;;;;;;;94.53;51.13;;;;;;;8.60;100.00;98314.59;5053467;28;20178;-59
2023/03/04 08:33:03;;;;;;;83.03;48.97;;;;;;;8.41;100.00;98278.00;5053454;28;20192;-59
2023/03/04 08:35:29;;;;;;;78.72;47.35;;;;;;;8.74;100.00;98300.84;5053397;28;20228;-59
2023/03/04 08:37:54;;;;;;;87.75;47.97;;;;;;;8.94;100.00;98301.25;5053027;28;20181;-59
2023/03/04 08:40:25;;;;;;;87.15;47.72;;;;;;;8.45;100.00;98194.38;5051855;28;20205;-59
2023/03/04 08:42:50;;;;;;;80.50;44.67;;;;;;;9.06;100.00;98263.50;5052455;28;20185;-59
2023/03/04 08:45:16;;;;;;;77.90;46.03;;;;;;;9.55;100.00;98316.19;5051185;28;20173;-60
2023/03/04 08:47:41;;;;;;;75.93;44.22;;;;;;;9.41;100.00;98273.19;5052066;28;20265;-60
2023/03/04 08:50:07;;;;;;;76.22;44.33;;;;;;;9.76;100.00;98311.22;5029575;28;20195;-60
2023/03/04 08:52:33;;;;;;;79.13;42.88;;;;;;;9.58;100.00;98241.91;5030674;28;20194;-59
2023/03/04 08:54:58;;;;;;;68.95;38.85;;;;;;;10.07;100.00;98310.88;5030394;28;20229;-60
2023/03/04 08:57:24;;;;;;;68.03;39.10;;;;;;;9.70;100.00;98239.28;5027783;28;20182;-60
2023/03/04 08:59:49;;;;;;;65.15;38.13;;;;;;;10.02;100.00;98278.44;5030535;28;20691;-59
2023/03/04 09:02:14;;;;;;;64.05;36.28;;;;;;;10.08;100.00;98265.13;5030570;28;20573;-59
2023/03/04 09:04:40;;;;;;;58.17;35.00;;;;;;;10.27;100.00;98318.06;5030242;28;20221;-59
2023/03/04 09:07:07;;;;;;;54.88;33.33;;;;;;;10.43;100.00;98320.41;5028726;28;20558;-59
2023/03/04 09:09:33;;;;;;;48.38;29.13;;;;;;;10.55;100.00;98314.41;5030300;28;20616;-59
2023/03/04 09:11:58;;;;;;;43.97;27.55;;;;;;;10.49;100.00;98301.88;5030347;28;20217;-60
2023/03/04 09:14:24;;;;;;;49.22;26.85;;;;;;;10.32;100.00;98247.91;5029059;28;20699;-59
2023/03/04 09:16:49;;;;;;;39.25;26.00;;;;;;;10.58;100.00;98291.75;5030359;28;20218;-59
2023/03/04 09:19:14;;;;;;;35.40;22.17;;;;;;;10.78;100.00;98300.66;5030255;28;20644;-59
2023/03/04 09:21:40;;;;;;;38.90;23.80;;;;;;;10.82;100.00;98289.16;5045977;28;20336;-59
2023/03/04 09:24:05;;;;;;;40.90;25.88;;;;;;;10.65;100.00;98250.72;5052464;28;20174;-59
2023/03/04 09:26:31;;;;;;;40.50;25.80;;;;;;;10.82;100.00;98248.59;5052435;28;20271;-60
2023/03/04 09:29:01;;;;;;;38.53;25.15;;;;;;;11.05;100.00;98283.16;5052314;28;20181;-59
2023/03/04 09:31:28;;;;;;;39.33;24.40;;;;;;;10.90;100.00;98250.63;5052360;28;20210;-59
2023/03/04 09:33:56;;;;;;;44.10;24.73;;;;;;;11.04;100.00;98245.28;5052902;28;20184;-59
2023/03/04 09:36:22;;;;;;;42.20;23.20;;;;;;;11.07;100.00;98239.84;5052276;28;20197;-59
2023/03/04 09:38:47;;;;;;;46.10;26.90;;;;;;;11.30;100.00;98288.22;5052266;28;20180;-59
2023/03/04 09:41:19;;;;;;;44.58;23.30;;;;;;;11.33;100.00;98290.59;5052262;28;20177;-59
2023/03/04 09:43:45;;;;;;;42.67;25.20;;;;;;;10.99;100.00;98243.03;5051803;28;20202;-59
2023/03/04 09:46:15;;;;;;;46.67;27.15;;;;;;;11.03;100.00;98243.63;5052195;28;20276;-60
2023/03/04 09:48:47;;;;;;;38.92;22.98;;;;;;;11.03;100.00;98248.81;5052188;28;20179;-59
2023/03/04 09:51:34;;;;;;;51.35;28.67;;;;;;;11.32;100.00;98283.75;5052109;28;20260;-59
2023/03/04 09:54:06;;;;;;;41.80;24.45;;;;;;;11.36;100.00;98287.75;5051459;28;20165;-59
2023/03/04 09:56:35;;;;;;;37.00;23.23;;;;;;;11.29;100.00;98268.44;5051402;28;20194;-59
2023/03/04 09:59:22;;;;;;;35.97;21.60;;;;;;;11.38;100.00;98283.31;5051920;28;20219;-59
2023/03/04 10:02:15;;;;;;;40.58;25.63;;;;;;;11.21;100.00;98250.06;5051548;28;20173;-60
2023/03/04 10:04:47;;;;;;;36.72;24.42;;;;;;;11.07;100.00;98229.50;5052040;28;20619;-60
2023/03/04 10:07:35;;;;;;;39.40;24.23;;;;;;;11.42;100.00;98271.75;5052154;28;20252;-59
2023/03/04 10:10:11;;;;;;;33.33;21.70;;;;;;;11.29;100.00;98263.25;5052654;28;20196;-59
2023/03/04 10:12:40;;;;;;;33.30;22.20;;;;;;;11.31;100.00;98261.34;5052044;28;20201;-59
2023/03/04 10:15:20;;;;;;;29.65;18.50;;;;;;;11.29;100.00;98266.69;5051798;28;20231;-60
2023/03/04 10:17:52;;;;;;;35.60;23.73;;;;;;;11.13;100.00;98262.72;5070031;28;20219;-59
2023/03/04 10:20:25;;;;;;;33.67;21.83;;;;;;;11.02;100.00;98260.06;5070373;28;20694;-60
2023/03/04 10:22:56;;;;;;;33.10;22.42;;;;;;;10.71;100.00;98206.31;5069636;28;20246;-59
2023/03/04 10:25:24;;;;;;;37.15;23.45;;;;;;;11.12;100.00;98255.88;5069541;28;20169;-59
2023/03/04 10:27:58;;;;;;;40.35;22.98;;;;;;;10.81;100.00;98200.34;5069705;28;20242;-59
2023/03/04 10:30:42;;;;;;;39.20;24.52;;;;;;;11.19;100.00;98246.72;5069631;28;20653;-60
2023/03/04 10:33:17;;;;;;;39.88;25.25;;;;;;;10.82;100.00;98181.31;5069287;28;20591;-59
2023/03/04 10:35:48;;;;;;;36.92;23.45;;;;;;;11.19;100.00;98236.38;5069045;28;20197;-60
2023/03/04 10:38:14;;;;;;;39.53;24.00;;;;;;;10.61;100.00;98136.28;5026757;28;20198;-60
2023/03/04 10:40:41;;;;;;;32.13;21.52;;;;;;;11.20;100.00;98233.66;5028890;28;20691;-60
2023/03/04 10:43:18;;;;;;;36.20;22.13;;;;;;;11.21;100.00;98232.72;5031056;28;20243;-60
2023/03/04 10:45:44;;;;;;;35.47;23.10;;;;;;;11.19;100.00;98218.25;5030818;28;20197;-60
2023/03/04 10:48:18;;;;;;;35.88;23.60;;;;;;;11.29;100.00;98227.00;5032259;28;20198;-60
2023/03/04 10:50:44;;;;;;;41.40;26.10;;;;;;;11.27;100.00;98213.34;5032816;28;20261;-59
2023/03/04 10:53:32;;;;;;;38.65;25.42;;;;;;;11.25;100.00;98218.63;5031891;28;20286;-59
2023/03/04 10:55:58;;;;;;;38.78;25.73;;;;;;;10.98;100.00;98174.03;5032699;28;20356;-59
2023/03/04 10:58:23;;;;;;;36.42;23.75;;;;;;;11.14;100.00;98191.88;5032992;28;20728;-60
2023/03/04 11:01:05;;;;;;;32.22;22.48;;;;;;;10.99;100.00;98142.06;5032863;28;20182;-60
2023/03/04 11:03:35;;;;;;;36.50;23.38;;;;;;;11.10;100.00;98159.38;5053144;28;20200;-60
2023/03/04 11:06:15;;;;;;;30.50;21.77;;;;;;;11.29;100.00;98196.75;5052956;28;20217;-60
2023/03/04 11:08:41;;;;;;;32.47;21.17;;;;;;;11.04;100.00;98144.31;5064499;28;20712;-60
2023/03/04 11:11:41;;;;;;;30.15;21.25;;;;;;;11.36;100.00;98189.31;5092871;28;20260;-60
2023/03/04 11:14:28;;;;;;;42.58;28.88;;;;;;;11.35;100.00;98192.84;5093095;28;20326;-60
2023/03/04 11:16:56;;;;;;;36.22;23.00;;;;;;;11.01;100.00;98140.19;5092856;28;20611;-60
2023/03/04 11:19:36;;;;;;;28.70;19.95;;;;;;;11.00;100.00;98137.69;5092967;28;20195;-60
2023/03/04 11:22:02;;;;;;;31.95;20.20;;;;;;;11.14;100.00;98166.00;5093258;28;20172;-60